Campo, California
Current Conditions -  °F | °C
As of 7:41 PM on Saturday 25 Oct 2014 (Local Time) from MMTJ Reporting Station
Few Clouds Few Clouds  
Wind Chill: 66°   Ceiling: Unl
Heat Index: 66°   Visibility: 7mi
Dew Point: 59°   Wind: 6mph
Humidity: 78%   Direction: 280°W
Pressure: 30.04"   Gusts: NA
Location:  32.61°N, 116.47°W
Report Text: MMTJ 260241Z 28005KT 7SM FEW015 19/15 A3004 RMK SLP178 52003 926 8/500 HZY
Loading
Personal Weather Stations






























Interactive Weather Map New forecast layout! Learn more

10-Day Weather Forecast

Advertisements
Track Severe Weather on mobile